Time;durP1;ratioP1;P1;durP2;ratioP2;P2;SDS_P1;SDS_P2;PMS_P1;PMS_P2;Temp;Humidity;BMP_temperature;BMP_pressure;BME280_temperature;BME280_humidity;BME280_pressure;Samples;Min_cycle;Max_cycle;Signal;HPM_P1;HPM_P2
2022/07/17 00:01:13;;;;;;;3.65;2.30;;;;;;;17.52;67.51;99354.66;5051834;28;20041;-42
2022/07/17 00:03:39;;;;;;;5.18;2.28;;;;;;;17.69;68.21;99388.59;5051897;28;20120;-44
2022/07/17 00:06:05;;;;;;;6.25;2.75;;;;;;;17.70;68.29;99379.72;5050718;28;20056;-44
2022/07/17 00:08:31;;;;;;;4.60;2.10;;;;;;;17.60;68.00;99368.16;5051848;28;20029;-45
2022/07/17 00:10:59;;;;;;;5.68;2.42;;;;;;;17.71;68.27;99379.63;5049229;28;20044;-46
2022/07/17 00:13:25;;;;;;;4.82;2.58;;;;;;;17.73;68.54;99385.63;5050352;28;20036;-44
2022/07/17 00:15:51;;;;;;;4.22;2.25;;;;;;;17.71;68.14;99378.78;5051066;28;20075;-42
2022/07/17 00:18:17;;;;;;;5.38;2.22;;;;;;;17.68;68.12;99368.50;5051607;28;20053;-46
2022/07/17 00:20:46;;;;;;;4.90;2.17;;;;;;;17.76;68.06;99374.06;5051908;28;20135;-44
2022/07/17 00:23:12;;;;;;;5.40;2.30;;;;;;;17.76;67.88;99379.31;5051457;28;20036;-50
2022/07/17 00:25:38;;;;;;;3.97;2.03;;;;;;;17.74;67.99;99379.41;5050277;28;20405;-44
2022/07/17 00:28:05;;;;;;;4.60;2.45;;;;;;;17.74;68.07;99382.03;5040707;28;20071;-43
2022/07/17 00:30:30;;;;;;;4.65;2.20;;;;;;;17.69;68.33;99378.88;5051874;28;20032;-46
2022/07/17 00:32:56;;;;;;;6.03;1.98;;;;;;;17.71;68.46;99379.63;5050900;28;20041;-45
2022/07/17 00:35:24;;;;;;;6.63;2.58;;;;;;;17.57;68.41;99363.09;5051088;28;20516;-45
2022/07/17 00:37:51;;;;;;;3.20;2.00;;;;;;;17.71;68.49;99384.03;5046455;28;20045;-46
2022/07/17 00:40:20;;;;;;;4.70;2.08;;;;;;;17.73;68.65;99372.50;5051372;28;20044;-45
2022/07/17 00:42:47;;;;;;;4.18;2.42;;;;;;;17.74;69.01;99373.34;5063391;28;20513;-45
2022/07/17 00:45:13;;;;;;;4.25;2.20;;;;;;;17.72;69.22;99377.84;5050882;28;20141;-46
2022/07/17 00:47:55;;;;;;;4.28;2.28;;;;;;;17.71;69.62;99376.16;5048956;28;20508;-44
2022/07/17 00:50:32;;;;;;;3.40;2.15;;;;;;;17.70;69.80;99380.56;5050201;28;20032;-46
2022/07/17 00:52:57;;;;;;;5.03;2.30;;;;;;;17.69;69.88;99380.69;5051287;28;20445;-45
2022/07/17 00:55:24;;;;;;;6.10;2.30;;;;;;;17.65;70.02;99371.31;5049593;28;20596;-45
2022/07/17 00:57:54;;;;;;;6.00;3.00;;;;;;;17.65;70.02;99374.78;5046852;28;20081;-44
2022/07/17 01:00:20;;;;;;;7.25;2.28;;;;;;;17.65;69.84;99377.41;5038850;28;20127;-45
2022/07/17 01:02:51;;;;;;;4.45;2.25;;;;;;;17.66;69.93;99383.53;5050981;28;20516;-44
2022/07/17 01:05:18;;;;;;;4.18;2.65;;;;;;;17.65;69.97;99376.56;5033170;28;20045;-44
2022/07/17 01:07:44;;;;;;;5.20;2.30;;;;;;;17.51;70.21;99347.72;5049939;28;20029;-44
2022/07/17 01:10:11;;;;;;;4.32;2.30;;;;;;;17.60;70.63;99365.53;5033143;28;20044;-45
2022/07/17 01:12:37;;;;;;;6.25;2.25;;;;;;;17.64;70.71;99377.50;5050510;28;20048;-45
2022/07/17 01:15:04;;;;;;;4.28;2.35;;;;;;;17.62;70.88;99382.91;5036868;28;20106;-44
2022/07/17 01:17:30;;;;;;;4.65;2.42;;;;;;;17.60;70.35;99379.50;5050271;28;20444;-44
2022/07/17 01:19:57;;;;;;;3.72;2.50;;;;;;;17.59;70.73;99380.44;5051055;28;20044;-45
2022/07/17 01:22:22;;;;;;;3.97;2.65;;;;;;;17.61;71.09;99383.00;5050764;28;20041;-44
2022/07/17 01:24:48;;;;;;;4.13;2.78;;;;;;;17.59;71.03;99379.56;5050769;28;20037;-46
2022/07/17 01:27:15;;;;;;;7.28;2.60;;;;;;;17.63;71.24;99389.00;5037899;28;20079;-45
2022/07/17 01:29:41;;;;;;;5.32;2.40;;;;;;;17.64;71.45;99388.88;5030625;28;20040;-44
2022/07/17 01:32:07;;;;;;;6.45;2.67;;;;;;;17.65;71.46;99392.34;5030874;28;20038;-45
2022/07/17 01:34:33;;;;;;;4.47;2.30;;;;;;;17.67;71.88;99399.19;5037837;28;20083;-45
2022/07/17 01:36:59;;;;;;;4.68;2.58;;;;;;;17.63;72.02;99387.22;5038409;28;20041;-45
2022/07/17 01:42:09;;;;;;;3.83;2.42;;;;;;;17.74;71.57;99399.63;5035339;28;20072;-45
2022/07/17 01:44:35;;;;;;;5.65;2.80;;;;;;;17.69;71.32;99399.91;5049327;28;20497;-43
2022/07/17 01:47:02;;;;;;;5.72;2.65;;;;;;;17.64;71.16;99391.50;5040778;28;20524;-43
2022/07/17 01:49:27;;;;;;;5.88;2.90;;;;;;;17.59;71.07;99406.75;5031181;28;20476;-45
2022/07/17 01:51:53;;;;;;;3.35;2.72;;;;;;;17.55;71.17;99404.41;5031486;28;20041;-44
2022/07/17 01:54:19;;;;;;;6.18;2.67;;;;;;;17.55;71.44;99400.00;5030234;28;21583;-45
2022/07/17 01:56:44;;;;;;;3.80;2.65;;;;;;;17.55;71.40;99405.25;5037488;28;20059;-44
2022/07/17 01:59:10;;;;;;;6.85;2.70;;;;;;;17.45;71.71;99395.44;5045853;28;20102;-45
2022/07/17 02:01:37;;;;;;;3.30;2.25;;;;;;;17.36;72.39;99396.91;5050187;28;20040;-47
2022/07/17 02:04:03;;;;;;;6.15;2.92;;;;;;;17.44;72.36;99401.66;5046178;28;20463;-47
2022/07/17 02:06:31;;;;;;;7.75;2.63;;;;;;;17.50;72.08;99399.44;5030123;28;20043;-44
2022/07/17 02:08:56;;;;;;;5.35;2.50;;;;;;;17.50;72.76;99401.25;5034414;28;20124;-45
2022/07/17 02:11:22;;;;;;;3.85;2.60;;;;;;;17.46;73.11;99397.97;5045869;28;20681;-45
2022/07/17 02:13:48;;;;;;;3.83;2.83;;;;;;;17.47;73.38;99401.47;5035280;28;20045;-45
2022/07/17 02:16:14;;;;;;;4.15;2.42;;;;;;;17.53;73.32;99407.16;5032361;28;20045;-45
2022/07/17 02:18:39;;;;;;;5.18;2.72;;;;;;;17.57;73.46;99403.38;5046154;28;20079;-46
2022/07/17 02:21:06;;;;;;;5.53;2.83;;;;;;;17.49;74.26;99397.75;5030005;28;20527;-42
2022/07/17 02:23:32;;;;;;;3.72;2.80;;;;;;;17.45;74.56;99400.69;5048831;28;20044;-47
2022/07/17 02:25:58;;;;;;;6.93;2.50;;;;;;;17.52;74.59;99407.25;5049302;28;20033;-48
2022/07/17 02:28:24;;;;;;;4.78;2.47;;;;;;;17.52;74.76;99400.19;5034867;28;20048;-47
2022/07/17 02:30:50;;;;;;;4.28;3.10;;;;;;;17.48;75.08;99396.06;5049193;28;20052;-47
2022/07/17 02:33:17;;;;;;;6.47;2.75;;;;;;;17.49;75.24;99405.66;5032755;28;20110;-47
2022/07/17 02:35:43;;;;;;;4.60;2.80;;;;;;;17.53;75.60;99403.69;5047852;28;20041;-47
2022/07/17 02:38:08;;;;;;;4.40;2.65;;;;;;;17.51;75.71;99393.25;5049419;28;20102;-46
2022/07/17 02:40:34;;;;;;;3.83;2.75;;;;;;;17.55;75.49;99402.63;5049145;28;20123;-46
2022/07/17 02:43:00;;;;;;;6.85;2.95;;;;;;;17.52;75.57;99404.63;5027652;28;20053;-45
2022/07/17 02:45:26;;;;;;;4.63;3.10;;;;;;;17.40;75.95;99385.25;5048851;28;20044;-46
2022/07/17 02:47:53;;;;;;;9.50;3.03;;;;;;;17.32;76.21;99374.41;5048824;28;20075;-46
2022/07/17 02:50:19;;;;;;;7.18;2.97;;;;;;;17.49;76.30;99403.03;5049154;28;20037;-46
2022/07/17 02:52:45;;;;;;;5.22;2.85;;;;;;;17.57;75.69;99399.88;5056403;28;20044;-45
2022/07/17 02:55:11;;;;;;;4.60;2.78;;;;;;;17.60;76.01;99397.91;5047843;28;20041;-46
2022/07/17 02:57:37;;;;;;;5.18;3.00;;;;;;;17.64;75.47;99393.28;5037551;28;20084;-49
2022/07/17 03:00:05;;;;;;;6.70;2.67;;;;;;;17.73;75.25;99401.41;5046725;28;20044;-48
2022/07/17 03:02:31;;;;;;;6.88;2.92;;;;;;;17.82;74.94;99404.34;5045687;28;20048;-46
2022/07/17 03:04:57;;;;;;;10.13;2.88;;;;;;;17.90;74.63;99405.50;5048801;28;20041;-47
2022/07/17 03:07:23;;;;;;;5.80;2.95;;;;;;;17.96;74.50;99409.50;5049079;28;20041;-46
2022/07/17 03:09:49;;;;;;;6.35;3.10;;;;;;;17.94;74.42;99412.25;5046894;28;20041;-49
2022/07/17 03:12:19;;;;;;;7.65;3.33;;;;;;;17.95;73.98;99413.91;5039084;28;20048;-45
2022/07/17 03:14:46;;;;;;;6.47;3.03;;;;;;;18.05;73.83;99417.63;5029240;28;20045;-46
2022/07/17 03:17:12;;;;;;;3.88;3.03;;;;;;;18.11;73.70;99411.06;5029505;28;20045;-47
2022/07/17 03:19:37;;;;;;;6.93;3.30;;;;;;;18.08;73.29;99411.28;5045783;28;20527;-46
2022/07/17 03:22:03;;;;;;;6.95;3.53;;;;;;;17.94;72.93;99400.88;5041183;28;20049;-48
2022/07/17 03:24:29;;;;;;;5.68;3.55;;;;;;;17.99;72.91;99404.88;5029090;28;20041;-46
2022/07/17 03:26:55;;;;;;;7.18;3.08;;;;;;;18.11;72.48;99409.28;5033573;28;20041;-51
2022/07/17 03:29:21;;;;;;;5.55;3.20;;;;;;;18.24;72.21;99408.44;5049242;28;20453;-50
2022/07/17 03:31:47;;;;;;;5.18;3.08;;;;;;;18.37;72.17;99410.06;5043742;28;20045;-50
2022/07/17 03:34:13;;;;;;;5.45;3.20;;;;;;;18.39;71.79;99415.25;5033052;28;20041;-45
2022/07/17 03:36:39;;;;;;;6.10;3.42;;;;;;;18.49;71.46;99417.13;5046789;28;20123;-46
2022/07/17 03:39:05;;;;;;;5.15;3.28;;;;;;;18.59;71.08;99418.19;5048758;28;20086;-45
2022/07/17 03:41:31;;;;;;;6.57;3.13;;;;;;;18.65;70.60;99419.53;5047814;28;20250;-46
2022/07/17 03:43:57;;;;;;;5.60;3.20;;;;;;;18.56;70.11;99421.03;5030291;28;20131;-48
2022/07/17 03:46:23;;;;;;;6.57;3.55;;;;;;;18.34;70.53;99423.47;5048218;28;20088;-46
2022/07/17 03:48:49;;;;;;;6.75;3.65;;;;;;;18.22;71.68;99434.84;5047053;28;20175;-46
2022/07/17 03:51:15;;;;;;;7.00;3.50;;;;;;;18.13;72.55;99432.84;5046361;28;20048;-47
2022/07/17 03:53:41;;;;;;;4.55;3.05;;;;;;;18.08;73.70;99437.59;5046495;28;20041;-46
2022/07/17 03:56:06;;;;;;;7.20;3.50;;;;;;;17.97;74.57;99442.75;5046941;28;20126;-45
2022/07/17 03:58:32;;;;;;;6.53;3.63;;;;;;;17.98;74.82;99440.03;5047502;28;20093;-46
2022/07/17 04:00:58;;;;;;;7.63;3.67;;;;;;;18.08;74.39;99445.50;5048040;28;20041;-46
2022/07/17 04:03:24;;;;;;;7.32;3.38;;;;;;;18.08;73.75;99434.97;5045182;28;20048;-47
2022/07/17 04:05:50;;;;;;;7.78;3.50;;;;;;;18.11;72.85;99438.22;5048090;28;20056;-46
2022/07/17 04:08:18;;;;;;;6.15;3.22;;;;;;;18.29;71.72;99441.38;5048187;28;20067;-44
2022/07/17 04:10:44;;;;;;;5.32;2.92;;;;;;;18.33;69.75;99436.72;5047030;28;20045;-47
2022/07/17 04:13:10;;;;;;;4.63;2.40;;;;;;;18.42;68.16;99436.91;5036169;28;20037;-46
2022/07/17 04:15:57;;;;;;;5.47;2.40;;;;;;;18.54;67.33;99433.47;5036489;28;20532;-46
2022/07/17 04:18:26;;;;;;;5.18;2.22;;;;;;;18.73;66.36;99426.91;5047851;28;20037;-47
2022/07/17 04:20:55;;;;;;;3.17;2.17;;;;;;;18.81;65.54;99414.84;5048303;28;20037;-50
2022/07/17 04:23:21;;;;;;;5.28;1.88;;;;;;;19.04;64.62;99429.84;5050961;28;20044;-46
2022/07/17 04:25:47;;;;;;;4.45;1.67;;;;;;;19.17;63.79;99431.56;5049776;28;20049;-47
2022/07/17 04:28:13;;;;;;;9.07;2.15;;;;;;;19.25;62.87;99418.66;5047769;28;20033;-48
2022/07/17 04:30:39;;;;;;;3.50;1.65;;;;;;;19.33;62.12;99421.56;5051778;28;20064;-50
2022/07/17 04:33:05;;;;;;;1.67;1.30;;;;;;;19.31;61.40;99413.75;5049173;28;20539;-45
2022/07/17 04:35:31;;;;;;;1.73;1.23;;;;;;;19.38;60.93;99398.31;5039916;28;20071;-47
2022/07/17 04:37:57;;;;;;;2.40;1.20;;;;;;;19.53;60.54;99412.19;5050314;28;20048;-46
2022/07/17 04:40:23;;;;;;;1.90;1.05;;;;;;;19.57;60.37;99411.88;5051449;28;20040;-48
2022/07/17 04:42:48;;;;;;;2.80;1.17;;;;;;;19.59;59.84;99402.03;5048805;28;20048;-46
2022/07/17 04:45:14;;;;;;;5.07;1.23;;;;;;;19.68;59.36;99406.59;5051179;28;20036;-46
2022/07/17 04:47:41;;;;;;;1.60;1.17;;;;;;;19.72;59.06;99405.41;5051296;28;20040;-46
2022/07/17 04:50:08;;;;;;;3.63;1.10;;;;;;;19.80;58.66;99402.19;5050914;28;20174;-49
2022/07/17 04:52:34;;;;;;;2.42;1.00;;;;;;;19.90;58.01;99403.16;5040284;28;20047;-45
2022/07/17 04:55:00;;;;;;;6.45;1.02;;;;;;;20.03;57.53;99408.34;5051235;28;20463;-45
2022/07/17 04:57:25;;;;;;;4.60;1.27;;;;;;;20.12;56.89;99400.53;5048529;28;20177;-46
2022/07/17 04:59:52;;;;;;;2.88;1.10;;;;;;;20.20;56.11;99403.41;5046729;28;20053;-45
2022/07/17 05:02:18;;;;;;;2.67;0.98;;;;;;;20.26;55.95;99405.56;5046746;28;20045;-46
2022/07/17 05:04:43;;;;;;;4.03;1.17;;;;;;;20.31;55.75;99402.59;5050619;28;20037;-46
2022/07/17 05:07:09;;;;;;;3.60;1.85;;;;;;;20.35;55.60;99409.34;5050675;28;20523;-47
2022/07/17 05:09:35;;;;;;;8.20;4.20;;;;;;;20.36;55.55;99404.91;5050693;28;20055;-51
2022/07/17 05:12:01;;;;;;;6.93;2.17;;;;;;;20.20;55.61;99400.75;5044444;28;20044;-47
2022/07/17 05:14:27;;;;;;;7.75;3.67;;;;;;;20.17;55.90;99410.72;5039582;28;20045;-48
2022/07/17 05:16:53;;;;;;;7.05;3.33;;;;;;;20.13;55.93;99409.28;5050967;28;20036;-50
2022/07/17 05:19:18;;;;;;;5.70;2.97;;;;;;;20.14;55.85;99410.97;5049963;28;20060;-47
2022/07/17 05:21:45;;;;;;;4.35;1.75;;;;;;;20.16;55.68;99414.31;5048719;28;20037;-45
2022/07/17 05:24:10;;;;;;;5.75;1.70;;;;;;;20.19;55.91;99411.47;5045213;28;20528;-48
2022/07/17 05:26:36;;;;;;;4.70;1.60;;;;;;;20.19;55.88;99417.59;5050827;28;20116;-46
2022/07/17 05:29:02;;;;;;;8.15;2.90;;;;;;;20.15;56.19;99410.84;5036097;28;20067;-48
2022/07/17 05:31:28;;;;;;;5.28;1.90;;;;;;;20.07;56.35;99421.16;5050285;28;20528;-47
2022/07/17 05:33:53;;;;;;;6.75;2.25;;;;;;;19.98;56.11;99424.53;5049362;28;20045;-47
2022/07/17 05:36:19;;;;;;;7.25;2.00;;;;;;;19.90;55.82;99418.97;5049385;28;20122;-47
2022/07/17 05:38:45;;;;;;;6.95;2.80;;;;;;;19.90;55.91;99434.81;5049164;28;20037;-46
2022/07/17 05:41:11;;;;;;;6.07;1.85;;;;;;;19.96;56.06;99430.88;5039562;28;20117;-48
2022/07/17 05:43:37;;;;;;;5.03;1.83;;;;;;;20.05;56.02;99430.16;5043265;28;20045;-46
2022/07/17 05:46:03;;;;;;;5.32;1.80;;;;;;;20.15;55.53;99428.50;5046848;28;20044;-48
2022/07/17 05:48:31;;;;;;;1.75;0.85;;;;;;;20.06;54.99;99398.38;5057145;28;20408;-46
2022/07/17 05:50:57;;;;;;;1.90;0.97;;;;;;;20.14;54.80;99425.03;5053532;28;20421;-48
2022/07/17 05:53:23;;;;;;;2.70;0.82;;;;;;;20.11;55.10;99406.78;5050296;28;20045;-50
2022/07/17 05:55:49;;;;;;;2.92;0.80;;;;;;;20.16;54.92;99406.41;5050341;28;20048;-48
2022/07/17 05:58:14;;;;;;;5.78;1.15;;;;;;;20.22;54.50;99395.38;5044806;28;20057;-47
2022/07/17 06:00:40;;;;;;;4.13;1.20;;;;;;;20.36;53.89;99403.06;5030390;28;20052;-46
2022/07/17 06:03:06;;;;;;;3.72;1.15;;;;;;;20.52;53.18;99403.53;5030237;28;20076;-45
2022/07/17 06:05:32;;;;;;;1.88;1.10;;;;;;;20.66;52.80;99400.66;5029048;28;20509;-46
2022/07/17 06:07:59;;;;;;;7.25;1.50;;;;;;;20.73;52.87;99400.16;5030566;28;20106;-47
2022/07/17 06:10:26;;;;;;;6.82;2.10;;;;;;;20.75;53.39;99398.22;5046138;28;20592;-48
2022/07/17 06:12:56;;;;;;;5.85;2.50;;;;;;;20.76;53.75;99400.75;5043516;28;20181;-45
2022/07/17 06:15:22;;;;;;;5.20;1.83;;;;;;;20.76;53.76;99398.09;5044551;28;20036;-50
2022/07/17 06:17:49;;;;;;;5.50;1.80;;;;;;;20.80;53.63;99394.25;5047661;28;20071;-46
2022/07/17 06:20:15;;;;;;;2.67;1.08;;;;;;;20.89;53.59;99395.28;5046517;28;20072;-46
2022/07/17 06:22:41;;;;;;;2.88;1.23;;;;;;;20.97;53.03;99392.88;5044899;28;20040;-47
2022/07/17 06:25:08;;;;;;;3.30;1.20;;;;;;;21.05;52.55;99395.72;5044796;28;20090;-43
2022/07/17 06:27:34;;;;;;;4.38;1.35;;;;;;;21.15;51.83;99396.66;5050279;28;20512;-45
2022/07/17 06:30:00;;;;;;;3.45;1.40;;;;;;;21.31;51.43;99404.16;5048757;28;20519;-45
2022/07/17 06:32:25;;;;;;;2.63;1.08;;;;;;;21.53;51.49;99404.91;5049030;28;20040;-48
2022/07/17 06:34:51;;;;;;;4.10;1.20;;;;;;;21.77;50.58;99396.69;5046591;28;20037;-44
2022/07/17 06:37:17;;;;;;;3.15;0.95;;;;;;;22.13;49.35;99394.56;5046834;28;20045;-49
2022/07/17 06:39:43;;;;;;;2.78;0.90;;;;;;;22.57;48.25;99385.34;5053634;28;20509;-46
2022/07/17 06:42:10;;;;;;;2.88;0.90;;;;;;;22.86;47.42;99388.13;5044241;28;20068;-47
2022/07/17 06:44:36;;;;;;;2.55;0.80;;;;;;;23.03;46.54;99377.66;5048017;28;20044;-46
2022/07/17 06:47:02;;;;;;;1.92;0.80;;;;;;;23.68;44.93;99385.88;5048885;28;20048;-45
2022/07/17 06:49:28;;;;;;;2.58;0.90;;;;;;;24.64;42.94;99391.69;5046914;28;20037;-48
2022/07/17 06:51:54;;;;;;;3.58;1.00;;;;;;;25.50;41.04;99384.88;5049297;28;20044;-48
2022/07/17 06:54:23;;;;;;;1.77;1.00;;;;;;;26.64;39.10;99388.22;5048465;28;20048;-47
2022/07/17 06:56:50;;;;;;;2.63;0.90;;;;;;;28.02;36.88;99391.81;5046652;28;20061;-44
2022/07/17 06:59:16;;;;;;;2.15;0.70;;;;;;;29.13;34.52;99396.03;5046310;28;20041;-47
2022/07/17 07:01:41;;;;;;;1.45;0.80;;;;;;;30.09;33.25;99379.31;5047878;28;20461;-45
2022/07/17 07:04:07;;;;;;;1.90;0.80;;;;;;;30.72;32.32;99389.44;5042315;28;20156;-50
2022/07/17 07:06:33;;;;;;;2.70;1.30;;;;;;;31.50;30.92;99392.13;5044716;28;20052;-47
2022/07/17 07:08:59;;;;;;;1.48;1.05;;;;;;;32.54;29.45;99384.13;5041635;28;20037;-46
2022/07/17 07:11:25;;;;;;;1.70;1.10;;;;;;;33.51;28.14;99395.38;5046810;28;20048;-47
2022/07/17 07:13:51;;;;;;;2.20;1.27;;;;;;;34.47;26.95;99396.53;5046080;28;20033;-48
2022/07/17 07:16:17;;;;;;;2.13;1.35;;;;;;;35.19;25.69;99389.97;5047470;28;20500;-46
2022/07/17 07:18:44;;;;;;;1.45;1.20;;;;;;;35.92;24.02;99382.06;5047182;28;20052;-45
2022/07/17 07:21:11;;;;;;;2.15;1.10;;;;;;;36.24;24.24;99391.75;5011107;28;20049;-47
2022/07/17 07:23:37;;;;;;;5.00;1.40;;;;;;;36.46;22.96;99378.59;5035692;28;20044;-47
2022/07/17 07:26:02;;;;;;;1.10;1.00;;;;;;;34.59;24.69;99384.03;5044833;28;20040;-47
2022/07/17 07:28:28;;;;;;;1.92;1.30;;;;;;;35.20;25.06;99378.09;5047891;28;20069;-46
2022/07/17 07:30:54;;;;;;;3.70;1.20;;;;;;;36.22;22.78;99390.34;5048300;28;20452;-47
2022/07/17 07:33:20;;;;;;;1.20;0.73;;;;;;;36.11;22.48;99378.34;5047699;28;20036;-50
2022/07/17 07:35:46;;;;;;;2.13;1.00;;;;;;;34.43;24.39;99385.34;5048844;28;20044;-49
2022/07/17 07:38:11;;;;;;;2.28;0.68;;;;;;;32.33;26.49;99377.84;5045109;28;20140;-48
2022/07/17 07:40:37;;;;;;;3.63;1.10;;;;;;;31.16;27.73;99372.38;5048171;28;20045;-46
2022/07/17 07:43:03;;;;;;;3.05;1.10;;;;;;;33.45;25.97;99364.69;5030482;28;20032;-48
2022/07/17 07:45:30;;;;;;;1.65;0.80;;;;;;;35.52;24.07;99362.66;5048640;28;20045;-45
2022/07/17 07:47:56;;;;;;;2.00;0.70;;;;;;;34.00;25.37;99368.81;5048617;28;20145;-45
2022/07/17 07:50:24;;;;;;;1.35;0.70;;;;;;;31.44;27.59;99363.34;5047753;28;20449;-47
2022/07/17 07:52:50;;;;;;;1.75;0.70;;;;;;;29.30;29.71;99368.13;5048021;28;20410;-44
2022/07/17 07:55:16;;;;;;;1.90;1.60;;;;;;;31.19;28.08;99370.16;5046547;28;20060;-43
2022/07/17 07:57:42;;;;;;;4.43;1.00;;;;;;;33.69;25.32;99379.44;5030052;28;20049;-47
2022/07/17 08:00:09;;;;;;;2.35;1.10;;;;;;;34.90;23.75;99368.94;5035696;28;20056;-51
2022/07/17 08:02:41;;;;;;;2.03;1.20;;;;;;;36.63;22.68;99381.53;5049202;28;20040;-46
2022/07/17 08:05:07;;;;;;;2.30;1.05;;;;;;;37.86;20.87;99381.75;5042911;28;20038;-48
2022/07/17 08:07:36;;;;;;;1.60;1.17;;;;;;;37.74;19.64;99382.56;5048387;28;20505;-45
2022/07/17 08:10:02;;;;;;;3.38;1.23;;;;;;;38.36;19.88;99382.91;5048750;28;20033;-44
2022/07/17 08:12:29;;;;;;;2.90;1.23;;;;;;;39.49;18.90;99382.09;5034576;28;20037;-45
2022/07/17 08:14:55;;;;;;;1.38;0.90;;;;;;;38.68;19.59;99386.00;5051290;28;20055;-47
2022/07/17 08:17:21;;;;;;;1.92;0.80;;;;;;;35.66;21.93;99383.13;5053562;28;20543;-46
2022/07/17 08:20:05;;;;;;;3.05;1.00;;;;;;;33.34;24.15;99386.06;5051366;28;20500;-47
2022/07/17 08:22:47;;;;;;;1.70;0.68;;;;;;;31.71;26.35;99374.34;5030014;28;20041;-46
2022/07/17 08:25:13;;;;;;;3.00;1.20;;;;;;;31.46;27.07;99379.25;5042485;28;20048;-48
2022/07/17 08:27:42;;;;;;;2.80;1.50;;;;;;;33.86;24.25;99383.38;5050627;28;20436;-48
2022/07/17 08:30:09;;;;;;;2.10;1.33;;;;;;;36.13;22.00;99381.66;5050402;28;20037;-46
2022/07/17 08:32:36;;;;;;;2.75;0.77;;;;;;;35.51;22.50;99371.81;5050634;28;20142;-48
2022/07/17 08:35:02;;;;;;;1.60;1.00;;;;;;;33.96;24.44;99382.94;5050633;28;20044;-48
2022/07/17 08:37:29;;;;;;;5.90;0.95;;;;;;;32.51;26.12;99377.28;5051912;28;20033;-45
2022/07/17 08:39:56;;;;;;;4.63;1.20;;;;;;;34.08;24.38;99372.31;5051981;28;20044;-47
2022/07/17 08:42:22;;;;;;;1.98;1.40;;;;;;;36.60;21.94;99396.31;5050907;28;20554;-45
2022/07/17 08:44:48;;;;;;;1.42;1.33;;;;;;;37.37;20.54;99399.28;5051757;28;20090;-45
2022/07/17 08:47:15;;;;;;;1.42;0.85;;;;;;;35.92;21.83;99395.63;5050662;28;20037;-44
2022/07/17 08:49:45;;;;;;;1.70;0.60;;;;;;;33.68;22.72;99393.09;5051672;28;20079;-47
2022/07/17 08:52:12;;;;;;;1.55;0.70;;;;;;;32.03;24.06;99373.72;5051667;28;20036;-47
2022/07/17 08:54:40;;;;;;;1.17;1.00;;;;;;;31.67;24.97;99373.88;5050248;28;20044;-48
2022/07/17 08:57:09;;;;;;;2.80;0.90;;;;;;;33.50;23.22;99378.38;5046877;28;20053;-47
2022/07/17 08:59:36;;;;;;;1.83;0.90;;;;;;;34.84;22.25;99379.56;5035890;28;20041;-45
2022/07/17 09:02:04;;;;;;;3.25;0.98;;;;;;;34.53;21.93;99392.97;5051539;28;20110;-50
2022/07/17 09:04:30;;;;;;;2.17;0.70;;;;;;;32.18;22.87;99389.75;5050853;28;20041;-50
2022/07/17 09:07:04;;;;;;;3.50;0.70;;;;;;;30.82;24.76;99376.56;5033545;28;20053;-50
2022/07/17 09:09:33;;;;;;;2.65;0.80;;;;;;;32.84;23.20;99390.91;5040035;28;20049;-48
2022/07/17 09:12:00;;;;;;;1.05;0.98;;;;;;;34.28;21.94;99386.63;5050041;28;20531;-50
2022/07/17 09:14:38;;;;;;;2.10;0.80;;;;;;;34.58;21.87;99389.63;5051047;28;20095;-46
2022/07/17 09:17:05;;;;;;;3.00;0.77;;;;;;;33.11;23.60;99399.88;5051080;28;20131;-45
2022/07/17 09:19:40;;;;;;;2.92;1.30;;;;;;;31.80;25.21;99400.88;5050587;28;20536;-45
2022/07/17 09:22:13;;;;;;;2.05;1.27;;;;;;;30.89;27.09;99398.09;5049521;28;20055;-46
2022/07/17 09:24:40;;;;;;;2.45;0.80;;;;;;;30.23;28.11;99405.28;5032807;28;20048;-47
2022/07/17 09:27:05;;;;;;;0.98;0.70;;;;;;;29.82;28.88;99407.53;5050903;28;20086;-47
2022/07/17 09:29:31;;;;;;;1.30;0.90;;;;;;;29.29;29.77;99408.47;5049481;28;20036;-45
2022/07/17 09:31:57;;;;;;;1.10;0.85;;;;;;;29.22;30.28;99412.88;5048694;28;20373;-61
2022/07/17 09:34:23;;;;;;;0.80;0.73;;;;;;;28.75;30.26;99407.63;5050047;28;20044;-64
2022/07/17 09:37:01;;;;;;;1.73;0.90;;;;;;;28.39;30.98;99409.94;5032590;28;20151;-62
2022/07/17 09:39:35;;;;;;;2.88;1.00;;;;;;;28.37;31.22;99409.31;5046221;28;20037;-66
2022/07/17 09:42:01;;;;;;;1.88;1.00;;;;;;;28.41;31.24;99406.09;5049543;28;20071;-63
2022/07/17 09:44:27;;;;;;;1.10;0.80;;;;;;;28.23;30.22;99409.00;5050080;28;20041;-64
2022/07/17 09:46:53;;;;;;;3.47;1.10;;;;;;;28.35;30.14;99389.91;5050525;28;20128;-65
2022/07/17 09:49:19;;;;;;;1.65;1.00;;;;;;;28.89;29.37;99406.91;5048361;28;20116;-62
2022/07/17 09:51:46;;;;;;;2.33;0.98;;;;;;;29.48;29.19;99397.28;5048823;28;20131;-63
2022/07/17 09:54:11;;;;;;;1.58;0.93;;;;;;;30.67;26.51;99397.25;5048347;28;20040;-62
2022/07/17 09:56:38;;;;;;;1.42;1.10;;;;;;;31.31;26.10;99395.44;5049318;28;20037;-62
2022/07/17 09:59:09;;;;;;;1.30;0.95;;;;;;;31.51;25.95;99399.16;5048795;28;20151;-64
2022/07/17 10:01:36;;;;;;;0.90;0.82;;;;;;;31.23;25.50;99387.53;5042277;28;20496;-65
2022/07/17 10:04:03;;;;;;;2.05;1.00;;;;;;;31.25;25.22;99390.84;5050467;28;20554;-62
2022/07/17 10:06:29;;;;;;;1.20;1.00;;;;;;;30.46;25.52;99384.53;5045060;28;20040;-64
2022/07/17 10:08:56;;;;;;;1.00;0.90;;;;;;;29.86;26.45;99396.28;5044911;28;20424;-65
2022/07/17 10:11:27;;;;;;;1.42;1.10;;;;;;;30.38;25.84;99402.59;5048243;28;20040;-63
2022/07/17 10:13:54;;;;;;;1.10;1.00;;;;;;;30.89;25.76;99395.41;5043117;28;20049;-62
2022/07/17 10:16:25;;;;;;;1.30;1.20;;;;;;;32.33;24.29;99406.63;5053908;28;20051;-63
2022/07/17 10:18:54;;;;;;;1.20;1.10;;;;;;;32.81;23.02;99393.19;5045384;28;20533;-63
2022/07/17 10:21:22;;;;;;;1.40;1.20;;;;;;;33.11;22.42;99383.72;5046524;28;20051;-62
2022/07/17 10:23:50;;;;;;;2.30;1.10;;;;;;;32.33;23.30;99391.31;5046429;28;20075;-64
2022/07/17 10:26:17;;;;;;;2.63;1.10;;;;;;;31.45;24.66;99399.09;5030044;28;20094;-63
2022/07/17 10:28:45;;;;;;;2.55;1.20;;;;;;;31.13;24.90;99392.41;5044227;28;20402;-61
2022/07/17 10:31:23;;;;;;;4.40;1.80;;;;;;;31.54;25.15;99382.66;5043978;28;20082;-63
2022/07/17 10:34:03;;;;;;;1.65;0.88;;;;;;;31.34;23.22;99378.97;5045420;28;20053;-62
2022/07/17 10:36:37;;;;;;;1.00;0.80;;;;;;;30.69;24.22;99385.28;5044936;28;20147;-64
2022/07/17 10:39:21;;;;;;;1.08;0.95;;;;;;;30.63;24.30;99380.66;5044044;28;20036;-63
2022/07/17 10:41:59;;;;;;;1.90;1.30;;;;;;;32.02;23.63;99381.97;5047893;28;20425;-63
2022/07/17 10:44:26;;;;;;;4.05;1.50;;;;;;;32.86;23.27;99388.00;5045772;28;20094;-64
2022/07/17 10:46:53;;;;;;;2.42;1.10;;;;;;;34.32;22.33;99387.84;5041979;28;20398;-64
2022/07/17 10:49:19;;;;;;;2.03;1.30;;;;;;;34.75;21.47;99390.84;5039567;28;20037;-63
2022/07/17 10:51:46;;;;;;;3.30;1.88;;;;;;;34.98;21.39;99388.41;5020631;28;20072;-66
2022/07/17 10:54:13;;;;;;;2.88;2.03;;;;;;;35.77;20.41;99398.66;5031950;28;20041;-63
2022/07/17 10:56:40;;;;;;;1.88;1.40;;;;;;;35.17;20.08;99395.53;5053712;28;20568;-62
2022/07/17 10:59:06;;;;;;;1.95;1.50;;;;;;;35.26;19.65;99388.88;5045703;28;20096;-63
2022/07/17 11:01:32;;;;;;;5.05;2.45;;;;;;;35.87;19.71;99377.34;5041794;28;20620;-64
2022/07/17 11:04:00;;;;;;;2.25;1.80;;;;;;;37.52;18.94;99373.34;5044851;28;20136;-64
2022/07/17 11:06:30;;;;;;;;;;;;;;;38.19;18.01;99379.28;5045789;28;20425;-64
2022/07/17 11:09:10;;;;;;;2.10;1.90;;;;;;;38.90;17.19;99370.69;5047064;28;19916;-62
2022/07/17 11:11:42;;;;;;;2.15;1.83;;;;;;;39.41;16.00;99368.91;5041481;28;20041;-63
2022/07/17 11:14:12;;;;;;;1.55;1.42;;;;;;;39.85;15.46;99366.31;5043730;28;20114;-64
2022/07/17 11:16:43;;;;;;;2.67;1.30;;;;;;;37.21;17.03;99351.97;5040763;28;20056;-63
2022/07/17 11:19:09;;;;;;;5.32;3.35;;;;;;;35.64;18.12;99348.19;5026887;28;20510;-62
2022/07/17 11:21:46;;;;;;;1.95;1.40;;;;;;;35.10;19.29;99343.41;5027881;28;20037;-64
2022/07/17 11:24:11;;;;;;;1.15;1.00;;;;;;;35.23;19.41;99348.75;5032176;28;20045;-64
2022/07/17 11:26:37;;;;;;;3.20;1.70;;;;;;;34.90;20.03;99356.25;5043554;28;20481;-64
2022/07/17 11:29:03;;;;;;;5.35;2.95;;;;;;;34.19;20.63;99352.78;5047527;28;20421;-63
2022/07/17 11:31:29;;;;;;;3.33;1.05;;;;;;;33.73;21.26;99348.31;5047687;28;20123;-64
2022/07/17 11:33:58;;;;;;;2.58;1.38;;;;;;;33.46;20.43;99360.13;5046247;28;20632;-62
2022/07/17 11:36:33;;;;;;;1.73;0.85;;;;;;;32.10;21.33;99349.53;5050032;28;20044;-63